createdAt,value
2022-08-05T00:01:36.204Z,24.55
2022-08-05T00:04:18.176Z,18.92
2022-08-05T00:06:51.721Z,29.23
2022-08-05T00:09:20.337Z,22.10
2022-08-05T00:11:55.364Z,20.20
2022-08-05T00:14:27.490Z,14.65
2022-08-05T00:16:57.937Z,18.33
2022-08-05T00:19:33.789Z,23.42
2022-08-05T00:22:12.123Z,13.85
2022-08-05T00:24:42.407Z,20.20
2022-08-05T00:27:28.552Z,9.63
2022-08-05T00:29:58.862Z,15.40
2022-08-05T00:32:31.332Z,13.50
2022-08-05T00:35:06.664Z,23.52
2022-08-05T00:37:52.860Z,16.75
2022-08-05T00:40:28.437Z,22.58
2022-08-05T00:42:58.327Z,24.33
2022-08-05T00:45:38.675Z,28.25
2022-08-05T00:48:08.219Z,21.70
2022-08-05T00:50:41.879Z,20.17
2022-08-05T00:54:01.027Z,40.17
2022-08-05T00:56:00.523Z,21.65
2022-08-05T00:58:28.753Z,22.67
2022-08-05T01:00:56.980Z,13.63
2022-08-05T01:03:30.857Z,27.50
2022-08-05T01:06:03.946Z,16.52
2022-08-05T01:08:43.026Z,32.72
2022-08-05T01:11:22.191Z,18.17
2022-08-05T01:14:08.463Z,18.75
2022-08-05T01:16:41.716Z,27.10
2022-08-05T01:19:56.343Z,17.13
2022-08-05T01:22:24.338Z,17.23
2022-08-05T01:25:13.663Z,24.05
2022-08-05T01:28:07.428Z,33.55
2022-08-05T01:30:39.616Z,16.70
2022-08-05T01:33:20.552Z,32.63
2022-08-05T01:35:57.465Z,23.35
2022-08-05T01:38:29.418Z,22.08
2022-08-05T01:41:00.063Z,56.38
2022-08-05T01:43:31.714Z,26.10
2022-08-05T01:46:07.283Z,31.67
2022-08-05T01:48:45.616Z,22.50
2022-08-05T01:51:18.500Z,26.52
2022-08-05T01:53:57.078Z,17.38
2022-08-05T01:58:11.158Z,24.77
2022-08-05T01:59:22.097Z,19.42
2022-08-05T02:01:51.525Z,23.60
2022-08-05T02:04:24.256Z,20.80
2022-08-05T02:06:53.796Z,23.17
2022-08-05T02:09:22.040Z,18.42
2022-08-05T02:12:02.837Z,19.88
2022-08-05T02:14:34.934Z,17.88
2022-08-05T02:17:08.230Z,23.55
2022-08-05T02:19:50.089Z,26.10
2022-08-05T02:22:26.721Z,24.65
2022-08-05T02:25:00.059Z,30.08
2022-08-05T02:27:30.242Z,30.13
2022-08-05T02:30:17.998Z,22.98
2022-08-05T02:32:49.322Z,15.10
2022-08-05T02:35:27.648Z,23.48
2022-08-05T02:38:00.101Z,25.27
2022-08-05T02:40:28.396Z,21.25
2022-08-05T02:42:57.397Z,22.98
2022-08-05T02:45:28.763Z,10.35
2022-08-05T02:48:17.390Z,22.20
2022-08-05T02:50:47.438Z,19.15
2022-08-05T02:53:19.136Z,29.75
2022-08-05T02:55:54.885Z,18.27
2022-08-05T02:58:30.004Z,25.33
2022-08-05T03:01:02.852Z,23.02
2022-08-05T03:03:34.226Z,17.35
2022-08-05T03:06:53.819Z,20.23
2022-08-05T03:09:09.022Z,24.33
2022-08-05T03:11:55.239Z,26.08
2022-08-05T03:14:26.822Z,25.02
2022-08-05T03:16:56.301Z,28.85
2022-08-05T03:19:33.883Z,25.30
2022-08-05T03:22:05.083Z,25.10
2022-08-05T03:24:47.001Z,28.75
2022-08-05T03:27:17.452Z,19.25
2022-08-05T03:30:08.777Z,19.58
2022-08-05T03:32:34.778Z,20.52
2022-08-05T03:35:04.613Z,21.83
2022-08-05T03:37:46.325Z,23.60
2022-08-05T03:40:31.303Z,20.48
2022-08-05T03:43:01.470Z,32.00
2022-08-05T03:45:57.129Z,27.95
2022-08-05T03:48:29.166Z,30.00
2022-08-05T03:52:34.691Z,28.90
2022-08-05T03:55:51.173Z,36.08
2022-08-05T03:56:43.279Z,35.47
2022-08-05T03:59:20.372Z,35.63
2022-08-05T04:01:51.717Z,20.55
2022-08-05T04:04:22.576Z,17.30
2022-08-05T04:06:55.135Z,19.33
2022-08-05T04:09:26.319Z,28.95
2022-08-05T04:11:56.823Z,20.88
2022-08-05T04:14:30.102Z,24.70
2022-08-05T04:17:00.523Z,25.27
2022-08-05T04:19:31.158Z,25.02
2022-08-05T04:22:09.576Z,18.42
2022-08-05T04:24:44.025Z,21.75
2022-08-05T04:27:15.625Z,19.15
2022-08-05T04:29:43.958Z,24.55
2022-08-05T04:32:13.645Z,30.20
2022-08-05T04:34:48.519Z,48.78
2022-08-05T04:37:16.668Z,23.25
2022-08-05T04:39:44.830Z,28.45
2022-08-05T04:42:21.295Z,22.25
2022-08-05T04:44:53.497Z,27.52
2022-08-05T04:47:21.717Z,24.25
2022-08-05T04:50:02.895Z,38.85
2022-08-05T04:52:39.331Z,38.40
2022-08-05T04:55:15.048Z,110.20
2022-08-05T04:57:47.771Z,329.55
2022-08-05T05:00:23.278Z,426.77
2022-08-05T05:02:52.309Z,430.25
2022-08-05T05:05:28.714Z,310.75
2022-08-05T05:08:01.445Z,232.20
2022-08-05T05:10:30.385Z,65.78
2022-08-05T05:16:07.254Z,46.33
2022-08-05T05:18:35.133Z,27.98
2022-08-05T05:21:05.593Z,35.90
2022-08-05T05:23:39.452Z,31.02
2022-08-05T05:26:28.071Z,26.75
2022-08-05T05:28:56.097Z,27.23
2022-08-05T05:31:25.083Z,33.42
2022-08-05T05:33:59.157Z,39.88
2022-08-05T05:36:29.714Z,38.45
2022-08-05T05:38:58.170Z,29.30
2022-08-05T05:41:40.343Z,29.10
2022-08-05T05:44:35.590Z,24.77
2022-08-05T05:46:57.969Z,30.17
2022-08-05T05:49:26.190Z,34.60
2022-08-05T05:51:55.462Z,40.78
2022-08-05T05:54:50.289Z,31.00
2022-08-05T05:57:13.805Z,37.55
2022-08-05T05:59:46.812Z,28.33
2022-08-05T06:02:16.719Z,31.70
2022-08-05T06:04:49.140Z,34.83
2022-08-05T06:07:22.533Z,21.70
2022-08-05T06:10:10.336Z,37.25
2022-08-05T06:12:42.081Z,39.15
2022-08-05T06:15:23.665Z,30.77
2022-08-05T06:17:52.679Z,27.90
2022-08-05T06:20:21.914Z,32.03
2022-08-05T06:22:51.267Z,49.13
2022-08-05T06:25:25.028Z,29.60
2022-08-05T06:28:11.225Z,32.28
2022-08-05T06:30:49.151Z,34.95
2022-08-05T06:33:19.190Z,80.10
2022-08-05T06:36:03.731Z,46.92
2022-08-05T06:38:37.152Z,29.17
2022-08-05T06:41:07.883Z,20.30
2022-08-05T06:43:58.622Z,35.35
2022-08-05T06:46:30.045Z,39.38
2022-08-05T06:48:58.746Z,37.35
2022-08-05T06:51:30.255Z,32.15
2022-08-05T06:54:01.837Z,32.40
2022-08-05T06:56:30.139Z,31.70
2022-08-05T06:59:01.700Z,35.55
2022-08-05T07:01:32.671Z,31.10
2022-08-05T07:04:01.416Z,29.95
2022-08-05T07:06:30.320Z,40.22
2022-08-05T07:09:04.199Z,32.80
2022-08-05T07:11:33.086Z,36.15
2022-08-05T07:14:28.972Z,26.77
2022-08-05T07:18:01.837Z,28.38
2022-08-05T07:22:41.995Z,34.30
2022-08-05T07:25:23.585Z,29.08
2022-08-05T07:28:05.750Z,30.50
2022-08-05T07:30:39.159Z,21.33
2022-08-05T07:33:10.396Z,51.97
2022-08-05T07:36:04.657Z,35.90
2022-08-05T07:38:34.399Z,26.63
2022-08-05T07:42:07.128Z,33.03
2022-08-05T07:43:56.083Z,31.95
2022-08-05T07:46:26.197Z,37.42
2022-08-05T07:49:03.874Z,27.10
2022-08-05T07:51:41.130Z,38.25
2022-08-05T07:54:18.844Z,23.83
2022-08-05T07:57:02.057Z,35.80
2022-08-05T07:59:39.990Z,29.27
2022-08-05T08:02:10.662Z,22.27
2022-08-05T08:04:49.462Z,44.33
2022-08-05T08:07:18.390Z,47.00
2022-08-05T08:09:52.560Z,32.58
2022-08-05T08:12:37.518Z,24.17
2022-08-05T08:15:15.341Z,30.52
2022-08-05T08:17:49.654Z,25.65
2022-08-05T08:20:59.819Z,38.03
2022-08-05T08:23:11.825Z,64.93
2022-08-05T08:25:59.897Z,38.85
2022-08-05T08:28:37.321Z,49.13
2022-08-05T08:31:19.373Z,31.08
2022-08-05T08:33:51.601Z,30.70
2022-08-05T08:36:39.240Z,30.23
2022-08-05T08:39:15.013Z,39.55
2022-08-05T08:41:50.837Z,33.97
2022-08-05T08:45:20.946Z,47.75
2022-08-05T08:47:47.081Z,23.90
2022-08-05T08:50:31.930Z,21.20
2022-08-05T08:53:00.626Z,39.88
2022-08-05T08:56:02.444Z,20.20
2022-08-05T08:58:17.832Z,35.42
2022-08-05T09:00:55.505Z,29.58
2022-08-05T09:03:23.540Z,44.78
2022-08-05T09:06:08.935Z,17.95
2022-08-05T09:08:40.591Z,34.35
2022-08-05T09:11:12.087Z,28.52
2022-08-05T09:14:00.846Z,22.65
2022-08-05T09:16:32.224Z,33.10
2022-08-05T09:19:00.092Z,40.03
2022-08-05T09:22:22.475Z,34.67
2022-08-05T09:24:17.421Z,38.70
2022-08-05T09:26:48.633Z,35.92
2022-08-05T09:29:19.933Z,27.13
2022-08-05T09:34:50.968Z,29.25
2022-08-05T09:38:12.310Z,26.20
2022-08-05T09:40:08.871Z,25.25
2022-08-05T09:42:48.285Z,17.83
2022-08-05T09:45:17.376Z,28.17
2022-08-05T09:47:55.598Z,33.63
2022-08-05T09:50:38.830Z,20.42
2022-08-05T09:53:22.902Z,44.55
2022-08-05T09:56:03.929Z,32.58
2022-08-05T09:58:32.893Z,28.40
2022-08-05T10:01:02.294Z,30.45
2022-08-05T10:03:59.078Z,29.50
2022-08-05T10:06:29.054Z,42.47
2022-08-05T10:09:27.568Z,37.20
2022-08-05T10:11:56.406Z,33.55
2022-08-05T10:14:28.426Z,30.15
2022-08-05T10:17:14.115Z,43.45
2022-08-05T10:20:04.058Z,21.17
2022-08-05T10:22:48.659Z,34.85
2022-08-05T10:25:18.901Z,24.15
2022-08-05T10:28:16.789Z,31.92
2022-08-05T10:31:20.376Z,34.25
2022-08-05T10:33:29.033Z,42.67
2022-08-05T10:35:59.847Z,29.90
2022-08-05T10:38:33.295Z,17.60
2022-08-05T10:41:07.545Z,22.65
2022-08-05T10:43:43.902Z,36.22
2022-08-05T10:46:13.436Z,32.47
2022-08-05T10:48:57.055Z,34.83
2022-08-05T10:51:29.035Z,40.33
2022-08-05T10:54:01.774Z,49.35
2022-08-05T10:56:45.868Z,33.00
2022-08-05T11:00:04.080Z,35.45
2022-08-05T11:02:14.244Z,51.85
2022-08-05T11:04:58.914Z,50.17
2022-08-05T11:07:33.003Z,32.40
2022-08-05T11:10:27.772Z,26.05
2022-08-05T11:12:57.558Z,32.88
2022-08-05T11:16:00.303Z,36.67
2022-08-05T11:18:29.725Z,38.33
2022-08-05T11:20:59.083Z,43.50
2022-08-05T11:24:03.847Z,30.52
2022-08-05T11:26:32.948Z,43.50
2022-08-05T11:29:11.761Z,34.22
2022-08-05T11:31:57.836Z,27.67
2022-08-05T11:34:51.421Z,39.88
2022-08-05T11:38:28.946Z,28.73
2022-08-05T11:41:13.904Z,25.02
2022-08-05T11:44:05.215Z,47.75
2022-08-05T11:46:36.355Z,35.03
2022-08-05T11:49:07.997Z,36.00
2022-08-05T11:51:44.224Z,48.30
2022-08-05T11:54:34.007Z,41.22
2022-08-05T11:57:07.596Z,38.13
2022-08-05T11:59:53.283Z,53.55
2022-08-05T12:02:31.926Z,35.53
2022-08-05T12:05:07.728Z,28.85
2022-08-05T12:08:03.304Z,34.33
2022-08-05T12:10:38.672Z,39.42
2022-08-05T12:13:13.954Z,105.22
2022-08-05T12:15:49.854Z,27.50
2022-08-05T12:18:24.296Z,49.25
2022-08-05T12:20:52.578Z,42.10
2022-08-05T12:23:20.395Z,62.90
2022-08-05T12:25:56.599Z,38.08
2022-08-05T12:28:32.399Z,37.03
2022-08-05T12:31:02.049Z,31.73
2022-08-05T12:33:37.080Z,33.42
2022-08-05T12:36:08.972Z,31.95
2022-08-05T12:38:38.097Z,27.90
2022-08-05T12:41:13.322Z,26.42
2022-08-05T12:43:53.660Z,29.88
2022-08-05T12:46:28.831Z,32.08
2022-08-05T12:48:58.958Z,31.77
2022-08-05T12:52:12.789Z,25.95
2022-08-05T12:54:23.380Z,33.92
2022-08-05T12:56:53.451Z,50.40
2022-08-05T12:59:46.769Z,51.08
2022-08-05T13:02:13.021Z,45.38
2022-08-05T13:04:52.585Z,49.67
2022-08-05T13:07:56.121Z,38.85
2022-08-05T13:10:13.005Z,57.00
2022-08-05T13:12:42.702Z,47.83
2022-08-05T13:15:24.426Z,43.05
2022-08-05T13:18:05.424Z,49.15
2022-08-05T13:20:40.318Z,33.38
2022-08-05T13:23:08.541Z,89.35
2022-08-05T13:25:52.327Z,45.35
2022-08-05T13:28:24.229Z,53.25
2022-08-05T13:30:53.325Z,49.55
2022-08-05T13:34:24.571Z,79.85
2022-08-05T13:36:12.938Z,56.72
2022-08-05T13:38:43.172Z,39.08
2022-08-05T13:41:13.620Z,44.83
2022-08-05T13:43:54.926Z,43.15
2022-08-05T13:49:14.099Z,44.42
2022-08-05T13:51:46.629Z,51.25
2022-08-05T13:54:16.103Z,50.25
2022-08-05T13:56:51.656Z,58.33
2022-08-05T13:59:24.429Z,63.38
2022-08-05T14:01:57.573Z,48.60
2022-08-05T14:04:49.490Z,53.03
2022-08-05T14:07:25.689Z,49.13
2022-08-05T14:10:08.368Z,46.33
2022-08-05T14:12:36.934Z,41.10
2022-08-05T14:15:05.998Z,43.75
2022-08-05T14:17:54.970Z,60.47
2022-08-05T14:20:27.631Z,46.80
2022-08-05T14:22:55.946Z,63.40
2022-08-05T14:25:28.211Z,55.40
2022-08-05T14:27:56.503Z,65.05
2022-08-05T14:30:27.809Z,70.60
2022-08-05T14:32:56.875Z,49.15
2022-08-05T14:35:50.145Z,55.30
2022-08-05T14:38:31.935Z,68.40
2022-08-05T14:41:01.556Z,61.35
2022-08-05T14:44:01.473Z,53.10
2022-08-05T14:46:21.672Z,46.15
2022-08-05T14:48:50.249Z,55.50
2022-08-05T14:51:19.663Z,68.72
2022-08-05T14:54:26.768Z,42.45
2022-08-05T14:56:38.176Z,52.95
2022-08-05T14:59:12.676Z,51.53
2022-08-05T15:01:47.609Z,70.03
2022-08-05T15:04:17.296Z,50.58
2022-08-05T15:06:49.106Z,48.15
2022-08-05T15:09:51.198Z,49.35
2022-08-05T15:12:06.941Z,69.93
2022-08-05T15:14:48.157Z,45.03
2022-08-05T15:17:44.503Z,52.55
2022-08-05T15:20:09.779Z,43.97
2022-08-05T15:22:46.504Z,53.10
2022-08-05T15:25:41.285Z,58.15
2022-08-05T15:28:13.223Z,70.22
2022-08-05T15:30:43.255Z,58.92
2022-08-05T15:33:11.826Z,106.57
2022-08-05T15:35:45.526Z,51.47
2022-08-05T15:38:34.062Z,58.25
2022-08-05T15:41:22.412Z,47.30
2022-08-05T15:43:52.473Z,71.43
2022-08-05T15:46:25.034Z,55.47
2022-08-05T15:48:58.614Z,60.20
2022-08-05T15:52:03.983Z,67.75
2022-08-05T15:54:19.010Z,46.13
2022-08-05T15:56:47.024Z,50.83
2022-08-05T15:59:21.885Z,53.08
2022-08-05T16:01:52.609Z,54.45
2022-08-05T16:04:20.959Z,66.53
2022-08-05T16:06:53.899Z,68.55
2022-08-05T16:09:25.694Z,89.50
2022-08-05T16:11:54.176Z,49.20
2022-08-05T16:14:22.544Z,88.40
2022-08-05T16:16:51.269Z,57.58
2022-08-05T16:20:03.621Z,62.80
2022-08-05T16:22:10.605Z,48.88
2022-08-05T16:24:51.030Z,54.83
2022-08-05T16:27:47.312Z,66.00
2022-08-05T16:30:23.271Z,46.42
2022-08-05T16:32:53.897Z,60.47
2022-08-05T16:35:28.286Z,65.55
2022-08-05T16:38:14.955Z,57.70
2022-08-05T16:40:55.474Z,59.97
2022-08-05T16:43:28.671Z,64.03
2022-08-05T16:46:04.153Z,70.82
2022-08-05T16:48:40.529Z,47.83
2022-08-05T16:51:09.966Z,48.22
2022-08-05T16:54:03.262Z,70.10
2022-08-05T16:56:33.839Z,83.50
2022-08-05T16:59:08.003Z,95.07
2022-08-05T17:01:54.541Z,85.85
2022-08-05T17:04:27.804Z,84.50
2022-08-05T17:07:00.346Z,60.53
2022-08-05T17:09:29.606Z,51.28
2022-08-05T17:12:01.413Z,49.05
2022-08-05T17:14:37.022Z,41.97
2022-08-05T17:17:14.574Z,66.07
2022-08-05T17:19:45.639Z,61.70
2022-08-05T17:22:24.892Z,66.30
2022-08-05T17:24:57.781Z,86.65
2022-08-05T17:27:33.664Z,92.13
2022-08-05T17:30:03.221Z,71.10
2022-08-05T17:32:32.158Z,71.03
2022-08-05T17:35:01.768Z,65.93
2022-08-05T17:37:41.844Z,67.32
2022-08-05T17:40:15.427Z,87.35
2022-08-05T17:42:51.311Z,71.93
2022-08-05T17:45:23.058Z,59.50
2022-08-05T17:47:54.841Z,54.95
2022-08-05T17:50:28.694Z,58.97
2022-08-05T17:52:59.421Z,49.53
2022-08-05T17:55:37.317Z,39.00
2022-08-05T17:58:12.427Z,62.38
2022-08-05T18:00:44.997Z,62.20
2022-08-05T18:03:39.211Z,91.03
2022-08-05T18:06:12.332Z,51.13
2022-08-05T18:08:44.518Z,65.38
2022-08-05T18:11:24.165Z,48.28
2022-08-05T18:14:04.352Z,55.95
2022-08-05T18:16:35.088Z,58.45
2022-08-05T18:19:22.823Z,65.80
2022-08-05T18:22:08.265Z,60.63
2022-08-05T18:24:39.491Z,59.22
2022-08-05T18:27:12.381Z,69.35
2022-08-05T18:29:53.620Z,79.65
2022-08-05T18:32:27.815Z,54.88
2022-08-05T18:34:57.703Z,78.20
2022-08-05T18:37:34.038Z,45.70
2022-08-05T18:40:34.302Z,40.30
2022-08-05T18:42:56.748Z,71.65
2022-08-05T18:45:41.875Z,61.30
2022-08-05T18:48:11.505Z,65.32
2022-08-05T18:50:57.278Z,65.97
2022-08-05T18:53:34.743Z,68.95
2022-08-05T18:56:12.451Z,62.00
2022-08-05T18:58:42.954Z,55.80
2022-08-05T19:01:18.045Z,52.40
2022-08-05T19:03:55.190Z,54.15
2022-08-05T19:06:34.223Z,55.40
2022-08-05T19:09:05.299Z,58.60
2022-08-05T19:11:59.280Z,84.80
2022-08-05T19:14:53.465Z,84.20
2022-08-05T19:17:12.879Z,65.72
2022-08-05T19:19:44.066Z,68.45
2022-08-05T19:22:17.373Z,69.07
2022-08-05T19:24:55.926Z,62.78
2022-08-05T19:27:30.300Z,62.17
2022-08-05T19:29:58.501Z,76.97
2022-08-05T19:32:28.140Z,65.13
2022-08-05T19:34:56.805Z,77.68
2022-08-05T19:37:29.913Z,59.45
2022-08-05T19:40:14.872Z,54.42
2022-08-05T19:42:43.013Z,71.95
2022-08-05T19:45:33.133Z,50.53
2022-08-05T19:48:06.682Z,60.17
2022-08-05T19:50:35.037Z,52.53
2022-08-05T19:53:10.656Z,76.97
2022-08-05T19:56:29.878Z,47.38
2022-08-05T21:37:13.061Z,47.67
2022-08-05T21:39:50.742Z,116.75
2022-08-05T21:42:41.450Z,41.80
2022-08-05T21:46:01.648Z,47.90
2022-08-05T21:48:09.818Z,50.08
2022-08-05T21:53:47.108Z,44.55
2022-08-05T21:57:32.582Z,49.10
2022-08-05T22:00:29.004Z,82.78
2022-08-05T22:03:20.653Z,55.70
2022-08-05T22:06:12.063Z,62.00
2022-08-05T22:09:14.035Z,94.03
2022-08-05T22:11:53.693Z,35.10
2022-08-05T22:24:01.694Z,37.58
2022-08-05T22:26:40.724Z,46.70
2022-08-05T22:29:08.871Z,24.85
2022-08-05T22:31:44.821Z,26.98
2022-08-05T22:34:25.522Z,30.13
2022-08-05T22:36:58.494Z,29.08
2022-08-05T22:39:32.735Z,33.90
2022-08-05T22:42:11.016Z,26.42
2022-08-05T22:44:42.665Z,34.30
2022-08-05T22:47:29.061Z,35.90
2022-08-05T22:50:19.302Z,39.42
2022-08-05T22:52:47.697Z,37.20
2022-08-05T22:55:19.590Z,47.65
2022-08-05T22:57:51.348Z,40.40
2022-08-05T23:00:21.585Z,24.50
2022-08-05T23:02:50.298Z,30.85
2022-08-05T23:05:22.214Z,37.45
2022-08-05T23:07:50.914Z,43.15
2022-08-05T23:10:20.885Z,29.85
2022-08-05T23:12:55.702Z,31.80
2022-08-05T23:15:27.071Z,39.03
2022-08-05T23:18:00.737Z,37.25
2022-08-05T23:20:30.956Z,46.90
2022-08-05T23:22:59.245Z,26.05
2022-08-05T23:25:52.524Z,25.67
2022-08-05T23:28:17.282Z,26.80
2022-08-05T23:30:53.124Z,34.03
2022-08-05T23:33:26.283Z,32.70
2022-08-05T23:36:10.534Z,24.90
2022-08-05T23:38:38.916Z,32.95
2022-08-05T23:41:07.134Z,35.22
2022-08-05T23:44:05.086Z,25.13
2022-08-05T23:46:27.324Z,25.15
2022-08-05T23:49:01.947Z,34.88
2022-08-05T23:52:01.612Z,23.98
2022-08-05T23:54:33.749Z,34.10
2022-08-05T23:57:05.238Z,38.25
